Atwater, CA

2:57 PM PDT on May 30, 2015 (GMT -0700)
MesoWest | | Change Station
CLOSE
Current Station
Personal Weather Station
Location: Atwater, CA
Elevation: 151 ft
Nearby Weather Stations

Elev 151 ft 37.36 °N, 120.65 °W | Updated 46 minutes ago

Partly Cloudy
Partly Cloudy
88 °F
Feels Like 85 °F
N
6
Wind Variable Wind from NNW
Gusts 11.0 mph

Today
High -- | Low -- °F
--% Chance of Precip.
Yesterday
High -- | Low -- °F
Precip. -- in
5:44 AM 8:16 PM
Waxing Gibbous, 92% visible
Pressure 29.86 in
Visibility 10.0 miles
Clouds Few 4600 ft
Scattered Clouds 9500 ft
Heat Index 85 °F
Dew Point 50 °F
Humidity 27%
Rainfall in
Snow Depth Not available.
UV 8 out of 12
Pollen 6.20 out of 12
Air Quality Not available.
Flu Activity Sporadic
METAR KMER 302145Z 33008KT 10SM FEW046 SCT095 35/07 A2986

More Conditions Fewer Conditions

Pressure 29.86 in
Visibility 10.0 miles
Clouds Few 4600 ft
Scattered Clouds 9500 ft
Heat Index 85 °F
Dew Point 50 °F
Humidity 27%
Rainfall in
Snow Depth Not available.
UV 8 out of 12
Pollen 6.20 out of 12
Air Quality Not available.
Flu Activity Sporadic
METAR KMER 302145Z 33008KT 10SM FEW046 SCT095 35/07 A2986

More Conditions Fewer Conditions

10-Day Weather Forecast

Almanac

Astronomy

May. 30, 2015 Rise Set
Actual Time
Civil Twilight
Nautical Twilight
Astronomical Twilight
Moon
Length of Visible Light
Length of Day
Tomorrow will be .
, % of the Moon is Illuminated

Today's Extremes

State Highs State Lows

Community

WunderPhotos

Upload Photos

1,825,608 photos uploaded!

WunderBlogs® & News

Nearby

Air Quality

  Air Quality AQ Index Pollutant
Not available.

Snow Depth

Station Depth Elevation

Earthquake Activity

City Distance Mag. Time & Date
Minimum magnitude displayed is 2.5.

Coastal Water Temperatures

Place Temperature

Stations

Nearby Weather Stations

Station Location Temp. Windchill Dew Point Humidity Wind Precip. Elev Updated Type